Time;durP1;ratioP1;P1;durP2;ratioP2;P2;SDS_P1;SDS_P2;PMS_P1;PMS_P2;Temp;Humidity;BMP_temperature;BMP_pressure;BME280_temperature;BME280_humidity;BME280_pressure;Samples;Min_cycle;Max_cycle;Signal;HPM_P1;HPM_P2
2023/03/24 00:00:23;;;;;;;10.20;8.45;;;13.80;99.90;;;;;;5051729;28;20213;-74
2023/03/24 00:02:50;;;;;;;10.32;8.00;;;13.80;99.90;;;;;;5040541;28;20219;-74
2023/03/24 00:05:19;;;;;;;10.15;8.48;;;13.80;99.90;;;;;;5045814;28;20191;-73
2023/03/24 00:07:49;;;;;;;10.27;8.15;;;13.80;99.90;;;;;;5045586;28;20203;-74
2023/03/24 00:10:19;;;;;;;11.02;8.55;;;13.80;99.90;;;;;;5043470;28;20223;-74
2023/03/24 00:12:47;;;;;;;11.82;9.07;;;13.80;99.90;;;;;;5047464;28;20211;-74
2023/03/24 00:15:17;;;;;;;13.02;9.65;;;13.70;99.90;;;;;;5049099;28;20775;-73
2023/03/24 00:17:45;;;;;;;15.48;11.60;;;13.70;99.90;;;;;;5044244;28;20210;-73
2023/03/24 00:20:15;;;;;;;12.65;10.02;;;13.50;99.90;;;;;;5047534;28;20227;-74
2023/03/24 00:22:48;;;;;;;13.93;10.45;;;13.40;99.90;;;;;;5045143;28;20238;-75
2023/03/24 00:25:19;;;;;;;10.63;9.15;;;13.30;99.90;;;;;;5042765;28;20207;-74
2023/03/24 00:27:47;;;;;;;10.98;8.73;;;13.30;99.90;;;;;;5045479;28;20272;-74
2023/03/24 00:30:15;;;;;;;9.80;8.52;;;13.30;99.90;;;;;;5048321;28;20226;-73
2023/03/24 00:32:43;;;;;;;11.23;9.05;;;13.30;99.90;;;;;;5045946;28;20199;-73
2023/03/24 00:35:11;;;;;;;11.38;9.93;;;13.30;99.90;;;;;;5047261;28;20811;-74
2023/03/24 00:37:40;;;;;;;11.43;8.98;;;13.20;99.90;;;;;;5048142;28;20590;-74
2023/03/24 00:40:11;;;;;;;11.50;9.63;;;13.20;99.90;;;;;;5045807;28;20219;-73
2023/03/24 00:42:44;;;;;;;10.38;8.93;;;13.20;99.90;;;;;;5046542;28;20309;-74
2023/03/24 00:45:13;;;;;;;10.35;8.75;;;13.20;99.90;;;;;;5045320;28;20956;-76
2023/03/24 00:47:43;;;;;;;11.95;8.73;;;13.20;99.90;;;;;;5047056;28;20199;-74
2023/03/24 00:50:15;;;;;;;13.50;11.60;;;13.30;99.90;;;;;;5049161;28;20806;-74
2023/03/24 00:52:46;;;;;;;13.05;10.93;;;13.20;99.90;;;;;;5064613;28;20204;-73
2023/03/24 00:55:14;;;;;;;11.43;10.23;;;13.10;99.90;;;;;;5049757;28;20302;-74
2023/03/24 00:57:48;;;;;;;11.40;10.15;;;13.00;99.90;;;;;;5044190;28;20199;-74
2023/03/24 01:00:19;;;;;;;13.77;11.13;;;13.00;99.90;;;;;;5049449;28;20211;-74
2023/03/24 01:02:46;;;;;;;12.43;10.52;;;12.90;99.90;;;;;;5046498;28;20206;-73
2023/03/24 01:05:16;;;;;;;11.70;9.82;;;12.80;99.90;;;;;;5042875;28;20203;-75
2023/03/24 01:07:44;;;;;;;10.88;9.60;;;12.80;99.90;;;;;;5044045;28;20199;-74
2023/03/24 01:10:14;;;;;;;12.80;10.57;;;12.70;99.90;;;;;;5001439;28;20325;-74
2023/03/24 01:12:41;;;;;;;11.07;9.48;;;12.70;99.90;;;;;;5033061;28;20206;-74
2023/03/24 01:15:16;;;;;;;12.05;9.65;;;12.60;99.90;;;;;;5047732;28;20219;-75
2023/03/24 01:17:45;;;;;;;11.38;9.88;;;12.60;99.90;;;;;;5043566;28;21811;-74
2023/03/24 01:20:15;;;;;;;12.65;9.70;;;12.60;99.90;;;;;;5049682;28;20219;-74
2023/03/24 01:22:45;;;;;;;10.02;8.82;;;12.60;99.90;;;;;;5046294;28;20203;-74
2023/03/24 01:25:15;;;;;;;10.52;9.38;;;12.60;99.90;;;;;;5043166;28;20191;-75
2023/03/24 01:27:42;;;;;;;10.93;9.63;;;12.60;99.90;;;;;;5045471;28;20225;-74
2023/03/24 01:30:12;;;;;;;11.30;9.25;;;12.60;99.90;;;;;;5048676;28;20245;-75
2023/03/24 01:32:40;;;;;;;10.63;9.52;;;12.60;99.90;;;;;;5046215;28;20215;-74
2023/03/24 01:35:08;;;;;;;10.07;8.98;;;12.60;99.90;;;;;;5052041;28;20238;-74
2023/03/24 01:37:35;;;;;;;9.43;8.43;;;12.70;99.90;;;;;;5049193;28;20195;-75
2023/03/24 01:40:08;;;;;;;11.23;9.82;;;12.70;99.90;;;;;;5048643;28;20256;-74
2023/03/24 01:42:36;;;;;;;11.68;10.07;;;12.70;99.90;;;;;;5045823;28;20199;-74
2023/03/24 01:45:56;;;;;;;13.20;11.10;;;12.70;99.90;;;;;;5050481;28;20218;-73
2023/03/24 01:48:28;;;;;;;14.38;12.45;;;12.70;99.90;;;;;;4986289;28;20727;-75
2023/03/24 01:50:57;;;;;;;14.10;12.60;;;12.80;99.90;;;;;;4995395;28;20194;-75
2023/03/24 01:53:25;;;;;;;14.27;12.75;;;12.70;99.90;;;;;;5017621;28;20203;-74
2023/03/24 01:55:52;;;;;;;14.75;12.50;;;12.70;99.90;;;;;;5049567;28;20223;-73
2023/03/24 01:58:22;;;;;;;21.95;16.02;;;12.70;99.90;;;;;;5051077;28;20214;-73
2023/03/24 02:00:51;;;;;;;14.38;12.63;;;12.60;99.90;;;;;;5047214;28;20226;-73
2023/03/24 02:03:21;;;;;;;15.48;12.38;;;12.50;99.90;;;;;;5050503;28;20207;-73
2023/03/24 02:05:52;;;;;;;13.40;12.07;;;12.50;99.90;;;;;;5046176;28;20195;-73
2023/03/24 02:08:26;;;;;;;13.40;11.20;;;12.40;99.90;;;;;;5048022;28;20231;-74
2023/03/24 02:10:54;;;;;;;16.83;11.90;;;12.30;99.90;;;;;;5050241;28;20203;-75
2023/03/24 02:13:22;;;;;;;14.10;11.25;;;12.20;99.90;;;;;;5049726;28;20230;-75
2023/03/24 02:16:01;;;;;;;12.80;11.45;;;12.20;99.90;;;;;;5046536;28;20809;-74
2023/03/24 02:18:37;;;;;;;14.80;13.02;;;12.20;99.90;;;;;;5047491;28;20280;-77
2023/03/24 02:21:54;;;;;;;13.50;12.10;;;12.20;99.90;;;;;;5049237;28;20202;-74
2023/03/24 02:25:12;;;;;;;12.95;11.65;;;12.10;99.90;;;;;;4985142;28;20291;-74
2023/03/24 02:28:01;;;;;;;14.73;11.95;;;12.00;99.90;;;;;;5049461;28;20211;-73
2023/03/24 02:31:00;;;;;;;17.33;13.15;;;12.00;99.90;;;;;;5049129;28;20237;-75
2023/03/24 02:33:56;;;;;;;13.52;12.13;;;12.00;99.90;;;;;;5047517;28;20210;-73
2023/03/24 02:37:01;;;;;;;12.80;11.30;;;11.90;99.90;;;;;;5012475;28;20227;-73
2023/03/24 02:39:52;;;;;;;13.00;11.60;;;11.90;99.90;;;;;;5047413;28;20221;-73
2023/03/24 02:42:29;;;;;;;11.63;10.38;;;11.80;99.90;;;;;;5049735;28;20195;-73
2023/03/24 02:45:07;;;;;;;13.82;11.90;;;11.90;99.90;;;;;;5048232;28;20206;-73
2023/03/24 02:47:43;;;;;;;15.02;12.85;;;11.80;99.90;;;;;;5047468;28;20366;-74
2023/03/24 02:50:19;;;;;;;13.70;11.48;;;11.80;99.90;;;;;;5065449;28;20218;-74
2023/03/24 02:52:49;;;;;;;13.82;12.32;;;11.70;99.90;;;;;;5046964;28;20209;-73
2023/03/24 02:55:22;;;;;;;14.38;11.95;;;11.70;99.90;;;;;;5046992;28;20241;-74
2023/03/24 02:57:55;;;;;;;13.40;11.85;;;11.60;99.90;;;;;;5045836;28;20245;-73
2023/03/24 03:00:29;;;;;;;13.57;12.13;;;11.60;99.90;;;;;;5045106;28;20199;-74
2023/03/24 03:03:01;;;;;;;12.98;11.68;;;11.60;99.90;;;;;;5045845;28;20311;-73
2023/03/24 03:05:34;;;;;;;13.85;12.43;;;11.50;99.90;;;;;;5041474;28;20557;-74
2023/03/24 03:08:04;;;;;;;13.10;11.80;;;11.50;99.90;;;;;;5048017;28;20207;-74
2023/03/24 03:10:37;;;;;;;14.38;12.13;;;11.50;99.90;;;;;;5045536;28;20199;-73
2023/03/24 03:13:09;;;;;;;14.57;13.07;;;11.50;99.90;;;;;;5045270;28;20203;-74
2023/03/24 03:15:39;;;;;;;16.35;14.55;;;11.50;99.90;;;;;;5045855;28;20249;-72
2023/03/24 03:18:14;;;;;;;15.85;14.10;;;11.40;99.90;;;;;;5062841;28;20187;-74
2023/03/24 03:20:49;;;;;;;16.33;14.48;;;11.30;99.90;;;;;;5067082;28;20225;-74
2023/03/24 03:23:19;;;;;;;15.05;13.25;;;11.30;99.90;;;;;;5058110;28;20658;-74
2023/03/24 03:25:51;;;;;;;15.35;12.02;;;11.20;99.90;;;;;;5046989;28;20685;-73
2023/03/24 03:28:24;;;;;;;12.88;11.48;;;11.10;99.90;;;;;;5045780;28;20222;-74
2023/03/24 03:30:55;;;;;;;14.00;12.48;;;11.10;99.90;;;;;;5043768;28;20213;-73
2023/03/24 03:33:26;;;;;;;15.32;12.80;;;11.00;99.90;;;;;;5046799;28;20207;-73
2023/03/24 03:35:58;;;;;;;13.80;12.32;;;11.00;99.90;;;;;;5043927;28;20223;-73
2023/03/24 03:38:31;;;;;;;13.55;11.80;;;11.10;99.90;;;;;;5046553;28;20219;-72
2023/03/24 03:41:02;;;;;;;14.15;12.70;;;11.10;99.90;;;;;;5047504;28;20609;-74
2023/03/24 03:43:31;;;;;;;14.00;12.50;;;11.10;99.90;;;;;;5050339;28;20211;-74
2023/03/24 03:46:00;;;;;;;14.18;12.77;;;11.20;99.90;;;;;;5048329;28;20210;-74
2023/03/24 03:48:28;;;;;;;14.75;13.25;;;11.20;99.90;;;;;;5065273;28;20218;-74
2023/03/24 03:50:55;;;;;;;15.50;13.90;;;11.20;99.90;;;;;;5048882;28;20203;-75
2023/03/24 03:53:28;;;;;;;13.90;12.52;;;11.20;99.90;;;;;;5049320;28;20209;-74
2023/03/24 03:55:56;;;;;;;12.70;11.50;;;11.20;99.90;;;;;;5048588;28;20220;-74
2023/03/24 03:58:27;;;;;;;15.02;13.43;;;11.20;99.90;;;;;;5050021;28;20314;-74
2023/03/24 04:00:55;;;;;;;14.85;12.90;;;11.20;99.90;;;;;;5045156;28;20207;-73
2023/03/24 04:03:43;;;;;;;14.00;12.60;;;11.20;99.90;;;;;;5046922;28;20286;-75
2023/03/24 04:06:18;;;;;;;14.60;13.10;;;11.20;99.90;;;;;;5051997;28;20203;-75
2023/03/24 04:08:49;;;;;;;15.27;12.98;;;11.20;99.90;;;;;;5047689;28;20702;-75
2023/03/24 04:11:46;;;;;;;15.70;12.75;;;11.20;99.90;;;;;;5053602;28;20191;-75
2023/03/24 04:14:48;;;;;;;12.68;11.38;;;11.20;99.90;;;;;;5049415;28;20287;-74
2023/03/24 04:17:30;;;;;;;14.77;13.10;;;11.30;99.90;;;;;;5021236;28;20206;-74
2023/03/24 04:20:05;;;;;;;14.93;13.25;;;11.20;99.90;;;;;;5051376;28;20231;-73
2023/03/24 04:22:44;;;;;;;20.35;13.40;;;11.20;99.90;;;;;;5045202;28;20275;-75
2023/03/24 04:25:17;;;;;;;15.30;13.70;;;11.10;99.90;;;;;;5045953;28;20203;-74
2023/03/24 04:27:48;;;;;;;14.90;12.93;;;11.10;99.90;;;;;;5044758;28;20203;-75
2023/03/24 04:30:22;;;;;;;14.70;12.52;;;11.10;99.90;;;;;;5049645;28;20233;-74
2023/03/24 04:32:57;;;;;;;15.30;13.75;;;11.00;99.90;;;;;;5046453;28;20200;-75
2023/03/24 04:35:31;;;;;;;15.13;13.52;;;11.00;99.90;;;;;;5049061;28;20229;-75
2023/03/24 04:38:02;;;;;;;14.75;12.98;;;10.90;99.90;;;;;;5049635;28;20202;-75
2023/03/24 04:40:31;;;;;;;15.63;12.93;;;10.90;99.90;;;;;;5051867;28;20195;-74
2023/03/24 04:43:03;;;;;;;16.50;13.80;;;10.80;99.90;;;;;;5050722;28;20234;-74
2023/03/24 04:45:32;;;;;;;14.82;13.20;;;10.80;99.90;;;;;;5057833;28;20195;-75
2023/03/24 04:48:03;;;;;;;14.80;13.27;;;10.80;99.90;;;;;;5052573;28;20203;-74
2023/03/24 04:50:33;;;;;;;15.60;13.73;;;10.70;99.90;;;;;;5045407;28;20820;-75
2023/03/24 04:53:00;;;;;;;15.63;12.40;;;10.60;99.90;;;;;;5043806;28;20234;-74
2023/03/24 04:55:50;;;;;;;15.70;13.13;;;10.60;99.90;;;;;;5047068;28;20215;-74
2023/03/24 04:58:18;;;;;;;14.52;13.02;;;10.60;99.90;;;;;;5046470;28;20210;-73
2023/03/24 05:00:46;;;;;;;13.48;12.18;;;10.60;99.90;;;;;;5044972;28;20291;-75
2023/03/24 05:03:16;;;;;;;13.07;11.75;;;10.70;99.90;;;;;;5046867;28;20249;-74
2023/03/24 05:05:43;;;;;;;13.57;12.10;;;10.80;99.90;;;;;;5047189;28;20791;-75
2023/03/24 05:08:10;;;;;;;14.40;12.98;;;10.80;99.90;;;;;;5051122;28;20670;-74
2023/03/24 05:10:37;;;;;;;13.75;12.32;;;10.90;99.90;;;;;;5049613;28;20211;-75
2023/03/24 05:13:06;;;;;;;15.52;13.02;;;10.90;99.90;;;;;;5048877;28;20203;-75
2023/03/24 05:15:33;;;;;;;13.60;12.30;;;10.90;99.90;;;;;;5044654;28;20269;-76
2023/03/24 05:18:00;;;;;;;13.65;12.30;;;11.00;99.90;;;;;;5048573;28;20665;-75
2023/03/24 05:20:29;;;;;;;15.60;14.00;;;10.90;99.90;;;;;;5050867;28;20191;-75
2023/03/24 05:22:56;;;;;;;14.77;13.00;;;10.90;99.90;;;;;;5049633;28;21188;-75
2023/03/24 05:25:23;;;;;;;15.25;12.48;;;10.80;99.90;;;;;;5047250;28;20223;-75
2023/03/24 05:27:50;;;;;;;14.52;12.93;;;10.80;99.90;;;;;;5047853;28;20230;-75
2023/03/24 05:30:19;;;;;;;13.80;12.40;;;10.80;99.90;;;;;;5043210;28;20254;-75
2023/03/24 05:32:46;;;;;;;13.93;12.38;;;10.80;99.90;;;;;;5040005;28;23427;-75
2023/03/24 05:35:13;;;;;;;13.52;12.07;;;10.80;99.90;;;;;;5046633;28;20235;-74
2023/03/24 05:37:41;;;;;;;12.00;10.80;;;10.80;99.90;;;;;;5045693;28;20704;-75
2023/03/24 05:40:09;;;;;;;12.90;11.60;;;10.80;99.90;;;;;;5042617;28;20826;-75
2023/03/24 05:42:36;;;;;;;14.20;12.43;;;10.80;99.90;;;;;;5039974;28;23315;-74
2023/03/24 05:45:05;;;;;;;14.93;12.07;;;10.80;99.90;;;;;;5059669;28;20209;-75
2023/03/24 05:47:32;;;;;;;13.65;12.25;;;10.80;99.90;;;;;;5043701;28;20278;-75
2023/03/24 05:49:59;;;;;;;13.07;11.77;;;10.90;99.90;;;;;;5044374;28;21200;-75
2023/03/24 05:52:25;;;;;;;13.90;12.25;;;10.90;99.90;;;;;;5045604;28;20614;-74
2023/03/24 05:54:54;;;;;;;14.77;13.25;;;10.90;99.90;;;;;;5047814;28;20747;-74
2023/03/24 05:57:21;;;;;;;13.98;12.57;;;10.80;99.90;;;;;;5044312;28;20312;-74
2023/03/24 05:59:48;;;;;;;14.25;12.70;;;10.80;99.90;;;;;;5046904;28;20714;-74
2023/03/24 06:02:15;;;;;;;15.35;13.75;;;10.80;99.90;;;;;;5047847;28;20235;-74
2023/03/24 06:04:44;;;;;;;13.32;11.85;;;10.90;99.90;;;;;;5040930;28;20218;-74
2023/03/24 06:07:12;;;;;;;15.02;13.50;;;11.00;99.90;;;;;;5046231;28;20203;-73
2023/03/24 06:09:41;;;;;;;14.35;12.80;;;11.00;99.90;;;;;;5044051;28;20230;-74
2023/03/24 06:12:09;;;;;;;13.93;12.55;;;11.10;99.90;;;;;;5041134;28;20195;-73
2023/03/24 06:14:37;;;;;;;13.45;11.80;;;11.20;99.90;;;;;;5041819;28;20204;-73
2023/03/24 06:17:04;;;;;;;13.20;11.85;;;11.30;99.90;;;;;;5043487;28;20239;-73
2023/03/24 06:19:32;;;;;;;13.50;12.10;;;11.30;99.90;;;;;;5043526;28;20254;-73
2023/03/24 06:22:01;;;;;;;18.40;11.32;;;11.40;99.90;;;;;;5043536;28;20206;-72
2023/03/24 06:24:29;;;;;;;15.13;12.88;;;11.80;99.90;;;;;;5043147;28;20195;-72
2023/03/24 06:27:01;;;;;;;13.65;12.25;;;12.20;99.90;;;;;;5041736;28;20199;-73
2023/03/24 06:29:29;;;;;;;14.88;13.38;;;12.90;99.90;;;;;;5042333;28;20812;-76
2023/03/24 06:31:57;;;;;;;15.18;13.48;;;12.90;99.90;;;;;;5053857;28;20214;-73
2023/03/24 06:34:25;;;;;;;18.23;14.40;;;12.90;99.90;;;;;;5065425;28;20219;-73
2023/03/24 06:36:52;;;;;;;17.30;14.80;;;12.90;99.90;;;;;;5063508;28;20282;-73
2023/03/24 06:39:19;;;;;;;16.70;15.00;;;13.10;99.90;;;;;;5049026;28;20686;-73
2023/03/24 06:41:46;;;;;;;18.48;16.58;;;13.30;99.90;;;;;;5053250;28;20196;-72
2023/03/24 06:44:13;;;;;;;16.95;15.15;;;13.40;99.90;;;;;;5051242;28;20194;-73
2023/03/24 06:46:41;;;;;;;17.10;14.05;;;13.40;99.90;;;;;;5041130;28;20196;-73
2023/03/24 06:49:08;;;;;;;17.23;14.50;;;13.30;99.90;;;;;;5043174;28;20241;-72
2023/03/24 06:51:35;;;;;;;15.45;13.80;;;13.10;99.90;;;;;;5044429;28;20210;-72
2023/03/24 06:54:03;;;;;;;13.80;12.38;;;13.00;99.90;;;;;;5043467;28;20241;-73
2023/03/24 06:56:30;;;;;;;16.60;12.52;;;13.20;99.90;;;;;;5038649;28;20247;-74
2023/03/24 06:58:57;;;;;;;15.18;12.27;;;13.40;99.90;;;;;;5039155;28;20229;-73
2023/03/24 07:01:24;;;;;;;12.50;11.30;;;13.40;99.90;;;;;;5039630;28;20260;-72
2023/03/24 07:03:53;;;;;;;13.73;12.32;;;13.30;99.90;;;;;;5036803;28;20211;-72
2023/03/24 07:06:21;;;;;;;13.45;12.05;;;13.10;99.90;;;;;;5036254;28;20194;-73
2023/03/24 07:08:48;;;;;;;15.70;12.90;;;13.00;99.90;;;;;;5035905;28;20243;-73
2023/03/24 07:11:16;;;;;;;15.07;13.52;;;12.80;99.90;;;;;;5038157;28;20248;-72
2023/03/24 07:13:43;;;;;;;15.25;13.65;;;12.70;99.90;;;;;;5037833;28;20206;-72
2023/03/24 07:16:10;;;;;;;14.45;12.95;;;12.60;99.90;;;;;;5038827;28;20246;-73
2023/03/24 07:18:37;;;;;;;15.75;14.15;;;12.60;99.90;;;;;;5035721;28;20225;-73
2023/03/24 07:21:06;;;;;;;15.25;13.45;;;12.50;99.90;;;;;;5037677;28;20206;-74
2023/03/24 07:23:33;;;;;;;13.93;12.57;;;12.40;99.90;;;;;;5040406;28;20199;-74
2023/03/24 07:26:00;;;;;;;16.10;14.43;;;12.30;99.90;;;;;;5037603;28;20214;-73
2023/03/24 07:28:27;;;;;;;15.43;13.88;;;12.30;99.90;;;;;;5034211;28;20211;-73
2023/03/24 07:30:54;;;;;;;14.73;13.15;;;12.30;99.90;;;;;;5038106;28;20230;-73
2023/03/24 07:33:23;;;;;;;14.75;13.25;;;12.20;99.90;;;;;;5038564;28;20291;-73
2023/03/24 07:35:53;;;;;;;14.88;13.02;;;12.20;99.90;;;;;;5035626;28;20206;-73
2023/03/24 07:38:21;;;;;;;17.10;13.45;;;12.20;99.90;;;;;;5036750;28;20246;-73
2023/03/24 07:40:48;;;;;;;15.07;13.57;;;12.20;99.90;;;;;;5054518;28;20205;-74
2023/03/24 07:43:15;;;;;;;15.52;13.82;;;12.20;99.90;;;;;;5038958;28;20199;-73
2023/03/24 07:45:45;;;;;;;15.90;14.07;;;12.20;99.90;;;;;;5037222;28;20739;-73
2023/03/24 07:48:12;;;;;;;15.18;13.57;;;12.10;99.90;;;;;;5039836;28;20749;-73
2023/03/24 07:50:39;;;;;;;14.52;13.02;;;12.10;99.90;;;;;;5035485;28;20202;-73
2023/03/24 07:53:08;;;;;;;13.60;12.18;;;12.10;99.90;;;;;;5034134;28;20266;-73
2023/03/24 07:55:36;;;;;;;12.80;11.50;;;12.20;99.90;;;;;;5036391;28;20210;-74
2023/03/24 07:58:03;;;;;;;13.98;12.35;;;12.30;99.90;;;;;;5038589;28;20697;-73
2023/03/24 08:00:31;;;;;;;14.13;12.50;;;12.30;99.90;;;;;;5034758;28;20265;-74
2023/03/24 08:02:59;;;;;;;14.32;12.82;;;12.40;99.90;;;;;;5039087;28;20873;-73
2023/03/24 08:05:29;;;;;;;14.82;13.32;;;12.50;99.90;;;;;;5030878;28;20286;-76
2023/03/24 08:07:57;;;;;;;13.68;12.27;;;12.50;99.90;;;;;;5036610;28;20203;-72
2023/03/24 08:10:28;;;;;;;15.57;13.63;;;12.40;99.90;;;;;;5031162;28;20199;-75
2023/03/24 08:12:57;;;;;;;15.65;14.07;;;12.40;99.90;;;;;;5035511;28;20257;-74
2023/03/24 08:15:25;;;;;;;17.25;13.82;;;12.40;99.90;;;;;;5035081;28;20215;-74
2023/03/24 08:17:53;;;;;;;17.13;15.30;;;12.20;99.90;;;;;;5038992;28;20310;-72
2023/03/24 08:20:23;;;;;;;15.77;13.65;;;12.10;99.90;;;;;;5025927;28;20219;-73
2023/03/24 08:22:52;;;;;;;16.25;13.95;;;12.00;99.90;;;;;;5028043;28;21014;-73
2023/03/24 08:25:20;;;;;;;15.02;13.43;;;11.80;99.90;;;;;;5037888;28;20199;-72
2023/03/24 08:27:48;;;;;;;14.85;13.35;;;11.80;99.90;;;;;;5039485;28;20253;-72
2023/03/24 08:30:18;;;;;;;14.05;12.75;;;11.70;99.90;;;;;;5044262;28;20748;-73
2023/03/24 08:32:48;;;;;;;14.52;12.98;;;11.70;99.90;;;;;;5041181;28;20197;-74
2023/03/24 08:35:17;;;;;;;14.32;12.75;;;11.70;99.90;;;;;;5041060;28;20203;-74
2023/03/24 08:37:45;;;;;;;13.88;12.52;;;11.70;99.90;;;;;;5048417;28;20210;-74
2023/03/24 08:40:17;;;;;;;14.48;12.85;;;11.70;99.90;;;;;;5049850;28;21137;-73
2023/03/24 08:42:48;;;;;;;12.68;11.38;;;11.80;99.90;;;;;;5041329;28;20199;-73
2023/03/24 08:45:19;;;;;;;13.27;11.95;;;11.80;99.90;;;;;;5042267;28;20202;-74
2023/03/24 08:47:46;;;;;;;12.23;10.95;;;11.90;99.90;;;;;;5040948;28;20210;-75
2023/03/24 08:50:14;;;;;;;11.48;10.27;;;12.00;99.90;;;;;;5039404;28;20254;-73
2023/03/24 08:52:41;;;;;;;10.90;9.75;;;12.00;99.90;;;;;;5041052;28;20195;-73
2023/03/24 08:55:10;;;;;;;11.23;10.13;;;12.10;99.90;;;;;;5036052;28;20211;-73
2023/03/24 08:57:37;;;;;;;10.30;9.30;;;12.20;99.90;;;;;;5038924;28;20227;-75
2023/03/24 09:00:12;;;;;;;12.85;11.55;;;12.20;99.90;;;;;;5039468;28;20253;-74
2023/03/24 09:02:40;;;;;;;12.75;11.45;;;12.20;99.90;;;;;;5040152;28;20199;-74
2023/03/24 09:05:08;;;;;;;14.88;12.95;;;12.20;99.90;;;;;;5039007;28;20289;-74
2023/03/24 09:07:35;;;;;;;17.63;13.98;;;12.20;99.90;;;;;;5038520;28;20489;-74
2023/03/24 09:10:02;;;;;;;17.23;14.40;;;12.10;99.90;;;;;;5039329;28;20211;-74
2023/03/24 09:12:29;;;;;;;19.23;16.50;;;12.00;99.90;;;;;;5038970;28;20198;-74
2023/03/24 09:14:56;;;;;;;16.50;14.80;;;11.90;99.90;;;;;;5037800;28;20966;-73
2023/03/24 09:17:23;;;;;;;14.73;13.23;;;11.80;99.90;;;;;;5038206;28;20222;-73
2023/03/24 09:19:52;;;;;;;14.50;13.05;;;11.70;99.90;;;;;;5038599;28;20310;-73
2023/03/24 09:22:19;;;;;;;15.23;13.60;;;11.60;99.90;;;;;;5040310;28;20210;-74
2023/03/24 09:24:47;;;;;;;14.02;12.48;;;11.70;99.90;;;;;;5038794;28;20208;-74
2023/03/24 09:27:15;;;;;;;13.57;12.18;;;11.70;99.90;;;;;;5039666;28;20199;-72
2023/03/24 09:29:42;;;;;;;12.13;10.90;;;11.70;99.90;;;;;;5039214;28;20724;-75
2023/03/24 09:32:09;;;;;;;12.90;11.57;;;11.80;99.90;;;;;;5038765;28;20223;-73
2023/03/24 09:34:37;;;;;;;12.50;11.20;;;11.80;99.90;;;;;;5043251;28;20725;-74
2023/03/24 09:37:06;;;;;;;12.75;11.45;;;11.80;99.90;;;;;;5057298;28;20608;-75
2023/03/24 09:39:35;;;;;;;13.43;12.02;;;11.70;99.90;;;;;;5039554;28;20250;-73
2023/03/24 09:42:04;;;;;;;11.55;10.35;;;11.80;99.90;;;;;;5038976;28;20257;-73
2023/03/24 09:44:36;;;;;;;11.88;10.75;;;11.90;99.90;;;;;;5039457;28;20206;-74
2023/03/24 09:47:12;;;;;;;12.40;11.20;;;12.00;99.90;;;;;;5038452;28;20229;-75
2023/03/24 09:49:42;;;;;;;14.25;12.70;;;12.10;99.90;;;;;;5037685;28;20846;-74
2023/03/24 09:52:14;;;;;;;13.07;11.68;;;12.10;99.90;;;;;;5038489;28;20246;-74
2023/03/24 09:54:47;;;;;;;14.80;13.30;;;12.20;99.90;;;;;;5039098;28;20217;-74
2023/03/24 09:57:20;;;;;;;13.48;12.18;;;12.20;99.90;;;;;;5038025;28;20223;-73
2023/03/24 09:59:47;;;;;;;14.02;12.57;;;12.20;99.90;;;;;;5040443;28;20242;-74
2023/03/24 10:02:16;;;;;;;14.00;12.35;;;12.30;99.90;;;;;;5053081;28;20191;-75
2023/03/24 10:04:43;;;;;;;20.25;16.90;;;12.30;99.90;;;;;;5064254;28;20226;-74
2023/03/24 10:07:18;;;;;;;23.20;20.58;;;12.30;99.90;;;;;;5059525;28;20222;-73
2023/03/24 10:09:50;;;;;;;18.08;16.30;;;12.30;99.90;;;;;;5041909;28;20704;-73
2023/03/24 10:12:27;;;;;;;16.75;15.05;;;12.30;99.90;;;;;;5040347;28;20286;-74
2023/03/24 10:15:04;;;;;;;19.40;17.05;;;12.40;99.90;;;;;;5039478;28;20237;-72
2023/03/24 10:17:43;;;;;;;20.80;16.30;;;12.40;99.90;;;;;;5038572;28;20220;-73
2023/03/24 10:20:24;;;;;;;16.98;15.27;;;12.40;99.90;;;;;;5038685;28;20250;-73
2023/03/24 10:23:00;;;;;;;20.33;17.92;;;12.40;99.90;;;;;;5037005;28;20203;-73
2023/03/24 10:25:38;;;;;;;19.45;17.40;;;12.40;99.90;;;;;;5035478;28;20195;-72
2023/03/24 10:28:16;;;;;;;16.90;15.07;;;12.60;99.90;;;;;;5037550;28;20223;-74
2023/03/24 10:30:44;;;;;;;19.52;17.50;;;12.70;99.90;;;;;;5036320;28;20617;-74
2023/03/24 10:33:13;;;;;;;22.60;19.30;;;12.60;99.90;;;;;;5038631;28;20233;-74
2023/03/24 10:35:44;;;;;;;20.40;18.23;;;12.70;99.90;;;;;;5053190;28;20265;-74
2023/03/24 10:38:17;;;;;;;19.83;17.88;;;12.60;99.90;;;;;;5037596;28;20247;-74
2023/03/24 10:40:46;;;;;;;21.38;17.60;;;12.60;99.90;;;;;;5037025;28;20288;-73
2023/03/24 10:43:14;;;;;;;18.98;16.88;;;12.70;99.90;;;;;;5031894;28;20198;-75
2023/03/24 10:45:44;;;;;;;17.17;15.48;;;12.80;99.90;;;;;;5029959;28;20290;-72
2023/03/24 10:48:13;;;;;;;22.45;18.73;;;12.90;99.90;;;;;;5033345;28;20199;-72
2023/03/24 10:50:43;;;;;;;19.33;17.33;;;13.10;99.90;;;;;;5031730;28;20284;-73
2023/03/24 10:53:18;;;;;;;21.23;19.08;;;13.20;99.90;;;;;;5034124;28;20214;-73
2023/03/24 10:55:46;;;;;;;21.48;19.17;;;13.40;99.90;;;;;;5034467;28;20202;-71
2023/03/24 10:58:20;;;;;;;22.90;20.33;;;13.60;99.90;;;;;;5032368;28;20219;-74
2023/03/24 11:00:48;;;;;;;24.75;22.25;;;13.80;99.90;;;;;;5036560;28;20649;-74
2023/03/24 11:03:20;;;;;;;24.48;21.98;;;14.30;99.90;;;;;;5035725;28;20621;-73
2023/03/24 11:05:48;;;;;;;22.75;20.42;;;14.60;99.90;;;;;;5034133;28;20269;-73
2023/03/24 11:08:27;;;;;;;27.90;24.88;;;14.90;99.90;;;;;;5036811;28;20294;-73
2023/03/24 11:10:54;;;;;;;28.05;25.08;;;15.20;99.90;;;;;;5035324;28;21292;-74
2023/03/24 11:13:32;;;;;;;29.73;24.35;;;15.70;99.90;;;;;;5035012;28;20199;-74
2023/03/24 11:16:10;;;;;;;27.15;23.20;;;15.90;99.90;;;;;;5032383;28;20724;-73
2023/03/24 11:18:38;;;;;;;27.05;24.17;;;16.00;99.90;;;;;;5033681;28;20502;-73
2023/03/24 11:21:07;;;;;;;27.40;23.45;;;16.00;99.90;;;;;;5033120;28;20294;-73
2023/03/24 11:23:38;;;;;;;25.88;23.20;;;15.90;99.90;;;;;;5033277;28;20229;-74
2023/03/24 11:26:09;;;;;;;25.70;23.08;;;15.90;99.90;;;;;;5031460;28;20203;-74
2023/03/24 11:28:40;;;;;;;25.30;22.45;;;16.20;99.90;;;;;;5036115;28;20219;-74
2023/03/24 11:31:10;;;;;;;26.08;23.27;;;16.30;99.90;;;;;;5032191;28;20211;-75
2023/03/24 11:33:44;;;;;;;27.10;23.23;;;16.40;99.90;;;;;;5046564;28;20604;-74
2023/03/24 11:36:43;;;;;;;25.15;22.45;;;16.60;99.90;;;;;;5033502;28;20256;-74
2023/03/24 11:39:16;;;;;;;31.77;25.58;;;16.90;99.90;;;;;;5019865;28;20229;-73
2023/03/24 11:41:50;;;;;;;27.17;23.20;;;17.00;99.90;;;;;;5037568;28;20550;-75
2023/03/24 11:44:19;;;;;;;28.63;24.10;;;17.20;99.90;;;;;;5035403;28;20230;-75
2023/03/24 11:46:51;;;;;;;30.77;25.92;;;17.40;99.90;;;;;;5035617;28;20282;-74
2023/03/24 11:49:21;;;;;;;33.67;26.58;;;17.50;99.90;;;;;;5027775;28;20313;-75
2023/03/24 11:51:52;;;;;;;26.13;22.13;;;17.50;99.90;;;;;;5027879;28;20203;-76
2023/03/24 11:54:27;;;;;;;27.05;24.25;;;17.60;99.90;;;;;;5032916;28;20219;-73
2023/03/24 11:56:56;;;;;;;24.52;21.92;;;17.70;99.90;;;;;;5030507;28;20210;-74
2023/03/24 11:59:37;;;;;;;25.50;22.90;;;18.00;99.90;;;;;;5037150;28;20552;-75
2023/03/24 12:02:16;;;;;;;24.65;22.15;;;18.00;99.90;;;;;;5036825;28;20298;-75
2023/03/24 12:04:55;;;;;;;26.15;22.50;;;18.20;99.90;;;;;;5040285;28;20433;-73
2023/03/24 12:07:52;;;;;;;25.90;22.50;;;18.30;99.90;;;;;;5035817;28;20202;-76
2023/03/24 12:10:29;;;;;;;27.63;24.35;;;18.10;99.90;;;;;;5025219;28;20222;-76
2023/03/24 12:16:20;;;;;;;25.70;23.00;;;18.50;99.90;;;;;;5094823;27;20988;-74
2023/03/24 12:19:13;;;;;;;30.08;26.85;;;18.40;99.90;;;;;;5110450;27;20710;-74
2023/03/24 12:21:53;;;;;;;30.42;25.80;;;18.30;99.90;;;;;;5100113;27;20196;-74
2023/03/24 12:24:33;;;;;;;28.65;25.58;;;18.30;99.90;;;;;;5108143;27;20208;-75
2023/03/24 12:27:01;;;;;;;27.48;24.00;;;18.40;99.90;;;;;;5104389;27;20253;-73
2023/03/24 12:29:46;;;;;;;26.40;23.70;;;18.80;99.90;;;;;;5106668;27;20240;-74
2023/03/24 12:32:47;;;;;;;25.55;22.95;;;19.20;99.90;;;;;;5125970;27;20197;-74
2023/03/24 12:35:34;;;;;;;24.80;22.30;;;19.20;99.90;;;;;;5107864;27;20831;-76
2023/03/24 12:38:11;;;;;;;24.42;21.75;;;19.40;99.90;;;;;;5109625;27;20195;-73
2023/03/24 12:41:02;;;;;;;23.05;20.73;;;19.60;99.90;;;;;;5110794;27;20204;-73
2023/03/24 12:43:36;;;;;;;24.65;22.10;;;19.30;99.90;;;;;;5109464;27;20204;-74
2023/03/24 12:46:20;;;;;;;26.38;23.35;;;19.40;99.90;;;;;;5110577;27;20205;-73
2023/03/24 12:49:15;;;;;;;28.48;25.58;;;19.60;99.90;;;;;;5111898;27;20311;-76
2023/03/24 12:51:51;;;;;;;26.23;23.40;;;19.80;99.90;;;;;;5112193;27;20220;-75
2023/03/24 12:54:28;;;;;;;28.85;25.77;;;19.90;99.90;;;;;;5110496;27;20284;-75